Latest Weather Observations for Wiluna Airport

IDW60801

Issued at 3:53 pm WST Tuesday 16 August 2022 (issued every 10 minutes, with the page automatically refreshed every 10 minutes)

About weather observations | Map of weather stations | Latest weather observations for WA | Other Formats
Station Details ID: 013044 Name: WILUNA AERO Lat: -26.63 Lon: 120.22 Height: 502.4 m
Data from the previous 72 hours. | See also: Recent months at Wiluna Airport
Date/Time
WST
Temp
°C
App
Temp
°C
Dew
Point
°C
Rel
Hum
%
Delta-T
°C
Wind Press
QNH
hPa
Press
MSL
hPa
Rain since
9am
mm
Dir  Spd
km/h
Gust
km/h
Spd
kts
Gust
kts
16/03:42pm 30.9 22.6 6.0 21 13.6 NW 39 57 21 31 1010.9 1010.1 0.0
16/03:30pm 30.4 21.2 6.3 22 13.1 NW 44 59 24 32 1010.9 1010.1 0.0
16/03:00pm 30.2 20.9 6.1 22 13.1 NW 44 65 24 35 1010.9 1010.1 0.0
16/02:35pm 30.7 21.4 5.9 21 13.5 NW 44 63 24 34 1010.8 1010.0 0.0
16/02:30pm 30.9 21.6 6.0 21 13.5 NW 44 63 24 34 1010.9 1010.1 0.0
16/02:24pm 31.2 22.8 5.6 20 13.9 NNW 39 61 21 33 1010.7 1009.9 0.0
16/02:18pm 31.1 22.8 6.2 21 13.6 NNW 39 56 21 30 1010.9 1010.1 0.0
16/02:03pm 31.0 21.2 5.4 20 13.8 NW 46 65 25 35 1010.8 1010.0 0.0
16/02:00pm 31.3 20.8 5.7 20 13.9 NW 50 65 27 35 1010.8 1010.0 0.0
16/01:30pm 31.0 21.8 5.4 20 13.8 NW 43 61 23 33 1011.2 1010.4 0.0
16/01:07pm 30.8 22.1 6.0 21 13.5 NW 41 59 22 32 1011.4 1010.6 0.0
16/01:00pm 30.9 21.7 5.3 20 13.8 NW 43 59 23 32 1011.4 1010.6 0.0
16/12:30pm 31.4 22.3 5.8 20 13.9 NW 43 72 23 39 1012.0 1011.2 0.0
16/12:00pm 30.3 21.1 6.2 22 13.1 NW 44 69 24 37 1012.6 1011.8 0.0
16/11:34am 29.9 22.7 5.9 22 13.0 NW 33 52 18 28 1012.9 1012.1 0.0
16/11:30am 30.0 23.1 6.6 23 12.8 NW 32 44 17 24 1013.1 1012.3 0.0
16/11:00am 29.1 21.3 6.5 24 12.3 NW 37 52 20 28 1013.7 1012.9 0.0
16/10:48am 28.8 20.9 6.2 24 12.2 NW 37 57 20 31 1013.9 1013.1 0.0
16/10:30am 28.1 20.3 6.8 26 11.6 NW 37 48 20 26 1014.2 1013.5 0.0
16/10:00am 27.9 20.6 7.2 27 11.3 NW 35 54 19 29 1014.5 1013.7 0.0
16/09:48am 27.0 19.1 6.4 27 11.0 NW 37 61 20 33 1014.6 1013.8 0.0
16/09:30am 27.4 20.7 7.3 28 11.0 NW 32 46 17 25 1014.8 1014.0 0.0
16/09:02am 26.2 18.6 7.7 31 10.1 NW 37 56 20 30 1014.9 1014.1 0.0
16/09:00am 25.8 17.8 7.4 31 10.0 NW 39 56 21 30 1014.9 1014.1 0.0
16/08:50am 25.8 19.1 7.4 31 10.0 NW 32 50 17 27 1014.8 1014.0 0.0
16/08:30am 25.6 19.7 7.7 32 9.7 NW 28 39 15 21 1014.9 1014.1 0.0
16/08:00am 24.5 20.2 8.0 35 9.0 NNW 20 33 11 18 1014.8 1014.0 0.0
16/07:30am 23.4 19.2 8.3 38 8.2 NW 20 30 11 16 1014.5 1013.7 0.0
16/07:00am 22.8 18.7 8.5 40 7.8 NW 20 30 11 16 1014.4 1013.6 0.0
16/06:30am 22.3 19.2 8.8 42 7.4 NW 15 20 8 11 1014.2 1013.5 0.0
16/06:00am 22.4 18.8 8.5 41 7.5 NNW 17 26 9 14 1013.9 1013.1 0.0
16/05:30am 22.7 18.8 8.8 41 7.6 NNW 19 28 10 15 1013.6 1012.8 0.0
16/05:00am 22.6 18.7 8.7 41 7.6 NNW 19 26 10 14 1013.5 1012.7 0.0
16/04:30am 22.7 18.6 8.8 41 7.6 N 20 26 11 14 1013.3 1012.5 0.0
16/04:00am 22.6 18.7 8.7 41 7.6 N 19 24 10 13 1013.1 1012.3 0.0
16/03:30am 23.1 19.6 8.8 40 7.8 N 17 24 9 13 1013.2 1012.4 0.0
16/03:00am 23.5 20.0 8.8 39 8.1 N 17 24 9 13 1013.3 1012.5 0.0
16/02:30am 23.8 20.3 8.6 38 8.3 N 17 22 9 12 1013.4 1012.6 0.0
16/02:00am 22.9 20.2 9.0 41 7.6 N 13 17 7 9 1013.4 1012.6 0.0
16/01:30am 23.3 20.5 8.6 39 8.0 N 13 15 7 8 1013.3 1012.5 0.0
16/01:00am 24.1 21.0 8.9 38 8.4 N 15 22 8 12 1013.3 1012.5 0.0
16/12:30am 22.7 20.0 8.8 41 7.6 N 13 15 7 8 1013.3 1012.5 0.0
16/12:00am 23.2 20.5 8.9 40 7.8 N 13 17 7 9 1013.3 1012.5 0.0
 
Date/Time
WST
Temp
°C
App
Temp
°C
Dew
Point
°C
Rel
Hum
%
Delta-T
°C
Wind Press
QNH
hPa
Press
MSL
hPa
Rain since
9am
mm
Dir  Spd
km/h
Gust
km/h
Spd
kts
Gust
kts
15/11:30pm 23.1 20.4 8.8 40 7.8 N 13 17 7 9 1013.5 1012.7 0.0
15/11:00pm 23.1 20.4 8.8 40 7.8 N 13 17 7 9 1013.5 1012.7 0.0
15/10:30pm 22.4 20.0 8.5 41 7.5 N 11 13 6 7 1013.9 1013.1 0.0
15/10:00pm 22.6 19.7 8.3 40 7.7 N 13 15 7 8 1014.0 1013.2 0.0
15/09:30pm 23.1 20.3 8.4 39 8.0 N 13 17 7 9 1013.9 1013.1 0.0
15/09:00pm 23.3 20.8 8.2 38 8.2 N 11 15 6 8 1014.2 1013.5 0.0
15/08:30pm 23.3 20.8 8.2 38 8.2 N 11 15 6 8 1014.2 1013.5 0.0
15/08:00pm 24.1 21.6 8.1 36 8.7 N 11 13 6 7 1014.1 1013.4 0.0
15/07:30pm 24.3 21.8 8.3 36 8.7 N 11 13 6 7 1014.0 1013.2 0.0
15/07:00pm 24.7 22.5 7.8 34 9.2 N 9 9 5 5 1013.6 1012.8 0.0
15/06:30pm 26.1 23.6 8.1 32 9.9 N 11 11 6 6 1013.3 1012.5 0.0
15/06:00pm 27.3 24.7 7.7 29 10.8 N 11 13 6 7 1013.1 1012.3 0.0
15/05:30pm 28.5 25.5 7.7 27 11.5 N 13 19 7 10 1013.0 1012.2 0.0
15/05:00pm 29.1 25.3 7.7 26 11.9 N 17 22 9 12 1012.9 1012.1 0.0
15/04:30pm 29.1 25.3 7.7 26 11.9 N 17 24 9 13 1013.2 1012.4 0.0
15/04:00pm 29.0 26.1 8.1 27 11.7 NNE 13 20 7 11 1013.5 1012.7 0.0
15/03:30pm 29.3 25.7 8.4 27 11.7 NNE 17 26 9 14 1013.6 1012.8 0.0
15/03:00pm 29.4 26.2 8.5 27 11.8 N 15 26 8 14 1014.0 1013.2 0.0
15/02:30pm 28.3 23.7 8.1 28 11.2 N 22 32 12 17 1014.4 1013.6 0.0
15/02:00pm 29.1 25.0 8.7 28 11.5 N 20 33 11 18 1014.5 1013.7 0.0
15/01:30pm 28.3 24.8 8.6 29 11.0 NNE 17 28 9 15 1014.9 1014.1 0.0
15/01:00pm 27.5 23.7 8.9 31 10.4 NNE 19 26 10 14 1015.6 1014.8 0.0
15/12:30pm 27.3 22.7 8.2 30 10.6 NNE 22 30 12 16 1016.3 1015.6 0.0
15/12:00pm 27.6 23.7 8.5 30 10.6 NNE 19 33 10 18 1016.9 1016.1 0.0
15/11:30am 26.3 22.3 8.3 32 9.9 NNE 19 26 10 14 1017.5 1016.7 0.0
15/11:00am 25.7 21.4 7.8 32 9.7 NNE 20 30 11 16 1017.9 1017.2 0.0
15/10:30am 24.7 20.4 7.8 34 9.2 NE 20 30 11 16 1018.7 1017.9 0.0
15/10:00am 23.2 18.9 7.7 37 8.3 NNE 20 35 11 19 1019.0 1018.2 0.0
15/09:30am 22.4 17.2 7.4 38 8.0 NE 24 35 13 19 1019.0 1018.2 0.0
15/09:00am 21.1 15.7 6.2 38 7.7 NE 24 35 13 19 1018.9 1018.1 0.0
15/08:30am 19.8 15.2 6.5 42 6.8 NE 20 30 11 16 1018.9 1018.1 0.0
15/08:00am 17.8 14.6 6.7 48 5.6 NE 13 19 7 10 1018.8 1018.0 0.0
15/07:30am 15.7 12.5 6.7 55 4.5 SW 13 17 7 9 1018.8 1018.0 0.0
15/07:00am 14.2 11.0 6.8 61 3.7 SW 13 20 7 11 1018.7 1017.9 0.0
15/06:30am 13.9 11.2 7.4 65 3.3 SW 11 17 6 9 1018.7 1017.9 0.0
15/06:00am 14.3 11.7 7.8 65 3.3 SW 11 15 6 8 1018.4 1017.7 0.0
15/05:30am 13.6 11.5 8.2 70 2.8 SW 9 11 5 6 1018.2 1017.5 0.0
15/05:00am 11.6 9.7 7.5 76 2.0 SW 7 11 4 6 1018.1 1017.4 0.0
15/04:30am 11.3 9.3 7.0 75 2.1 SW 7 9 4 5 1018.2 1017.5 0.0
15/04:00am 12.1 11.2 7.6 74 2.2 SW 2 7 1 4 1018.3 1017.6 0.0
15/03:30am 13.0 11.4 7.9 71 2.6 SW 6 7 3 4 1018.6 1017.8 0.0
15/03:00am 13.6 12.1 8.4 71 2.7 SW 6 7 3 4 1018.4 1017.7 0.0
15/02:30am 13.9 12.4 8.5 70 2.8 SW 6 7 3 4 1018.4 1017.7 0.0
15/02:00am 14.2 12.6 8.6 69 2.9 SW 7 9 4 5 1018.4 1017.7 0.0
15/01:30am 14.5 13.1 8.9 69 2.9 SW 6 7 3 4 1018.7 1017.9 0.0
15/01:00am 14.1 13.7 8.3 68 3.0 CALM 0 0 0 0 1018.8 1018.0 0.0
15/12:30am 14.9 13.5 8.8 67 3.2 SW 6 9 3 5 1018.9 1018.1 0.0
15/12:00am 15.1 14.7 8.3 64 3.5 CALM 0 0 0 0 1019.0 1018.2 0.0
 
Date/Time
WST
Temp
°C
App
Temp
°C
Dew
Point
°C
Rel
Hum
%
Delta-T
°C
Wind Press
QNH
hPa
Press
MSL
hPa
Rain since
9am
mm
Dir  Spd
km/h
Gust
km/h
Spd
kts
Gust
kts
14/11:30pm 16.2 14.7 9.2 63 3.7 SW 7 7 4 4 1019.1 1018.3 0.0
14/11:00pm 16.3 16.0 8.8 61 3.9 CALM 0 0 0 0 1019.1 1018.3 0.0
14/10:30pm 17.4 15.9 9.3 59 4.3 SW 7 9 4 5 1019.2 1018.4 0.0
14/10:00pm 17.9 16.5 9.5 58 4.5 SW 7 9 4 5 1019.3 1018.6 0.0
14/09:30pm 18.1 16.7 9.7 58 4.5 SW 7 9 4 5 1019.2 1018.4 0.0
14/09:00pm 19.2 16.7 9.7 54 5.2 SW 13 15 7 8 1019.1 1018.3 0.0
14/08:30pm 20.8 18.4 10.0 50 6.0 SW 13 15 7 8 1018.9 1018.1 0.0
14/08:00pm 20.4 18.9 10.5 53 5.5 SW 9 11 5 6 1018.7 1017.9 0.0
14/07:30pm 20.7 19.6 10.5 52 5.7 SW 7 9 4 5 1018.3 1017.6 0.0
14/07:00pm 21.4 20.0 10.9 51 5.9 SW 9 13 5 7 1018.0 1017.3 0.0
14/06:30pm 21.9 20.4 10.4 48 6.4 SW 9 11 5 6 1017.6 1016.9 0.0
14/06:00pm 23.0 22.0 11.1 47 6.8 SW 7 9 4 5 1017.4 1016.6 0.0
14/05:30pm 23.5 22.2 11.2 46 7.0 SW 9 13 5 7 1017.2 1016.4 0.0
14/05:00pm 24.1 22.8 11.4 45 7.3 SW 9 13 5 7 1017.1 1016.3 0.0
14/04:30pm 24.2 23.3 11.2 44 7.5 SW 7 11 4 6 1016.9 1016.1 0.0
14/04:00pm 24.3 23.4 11.3 44 7.5 SW 7 11 4 6 1017.0 1016.2 0.0
14/03:30pm 25.0 23.8 11.6 43 7.8 SW 9 15 5 8 1017.0 1016.2 0.0
14/03:00pm 24.7 23.9 11.6 44 7.6 SW 7 15 4 8 1017.0 1016.2 0.0
14/02:30pm 24.3 23.7 11.6 45 7.3 SW 6 9 3 5 1017.3 1016.5 0.0
14/02:00pm 22.9 21.3 11.6 49 6.5 SW 11 17 6 9 1017.6 1016.9 0.0
14/01:30pm 23.2 22.0 11.6 48 6.7 SW 9 15 5 8 1017.8 1017.1 0.0
14/01:00pm 22.2 20.9 11.3 50 6.2 SW 9 13 5 7 1018.1 1017.4 0.0
14/12:30pm 21.5 20.2 11.2 52 5.8 SE 9 15 5 8 1018.4 1017.7 0.0
14/12:00pm 21.1 19.5 11.4 54 5.5 ESE 11 19 6 10 1018.9 1018.1 0.0
14/11:30am 20.3 19.4 11.5 57 5.0 SSE 7 11 4 6 1019.2 1018.4 0.0
14/11:00am 19.9 18.3 11.4 58 4.8 SSE 11 17 6 9 1019.5 1018.8 0.0
14/10:30am 19.4 18.6 11.7 61 4.4 SE 7 15 4 8 1019.7 1019.0 0.0
14/10:00am 18.7 17.8 11.5 63 4.0 SSE 7 15 4 8 1019.9 1019.2 0.0
14/09:30am 17.5 16.7 11.8 69 3.2 SSE 7 13 4 7 1019.9 1019.2 0.0
14/09:00am 17.0 15.8 11.7 71 3.0 SSE 9 13 5 7 1019.9 1019.2 0.0
14/08:30am 16.2 14.7 11.8 75 2.5 SSE 11 15 6 8 1020.0 1019.3 0.0
14/08:00am 15.7 14.5 11.5 76 2.3 S 9 11 5 6 1019.5 1018.8 0.0
14/07:30am 15.1 13.8 11.3 78 2.1 S 9 13 5 7 1019.2 1018.4 0.0
14/07:00am 14.9 13.3 11.5 80 1.9 S 11 15 6 8 1018.8 1018.0 0.0
14/06:30am 14.9 14.1 11.7 81 1.8 S 7 9 4 5 1018.4 1017.7 0.0
14/06:00am 14.8 14.0 11.6 81 1.8 S 7 9 4 5 1018.1 1017.4 0.0
14/05:30am 15.0 13.8 11.6 80 1.9 S 9 11 5 6 1017.7 1017.0 0.0
14/05:00am 15.3 13.0 11.9 80 1.9 S 15 17 8 9 1017.4 1016.6 0.0
14/04:30am 15.2 13.5 12.3 83 1.6 SW 13 17 7 9 1017.2 1016.4 0.0
14/04:00am 14.7 13.6 11.8 83 1.6 SW 9 11 5 6 1017.1 1016.3 0.0
14/03:30am 15.2 14.5 12.0 81 1.8 SW 7 9 4 5 1017.0 1016.2 0.0
14/03:00am 15.9 14.5 12.1 78 2.1 SW 11 13 6 7 1016.8 1016.0 0.0
14/02:30am 16.3 15.2 12.1 76 2.4 SW 9 11 5 6 1016.9 1016.1 0.0
14/02:00am 16.9 15.5 12.2 74 2.6 SW 11 15 6 8 1016.9 1016.1 0.0
14/01:30am 17.4 16.3 12.1 71 3.0 SW 9 15 5 8 1016.9 1016.1 0.0
14/01:00am 17.9 15.8 12.4 70 3.1 SW 15 17 8 9 1016.8 1016.0 0.0
14/12:30am 18.1 16.2 11.7 66 3.6 SW 13 17 7 9 1016.6 1015.8 0.0
14/12:00am 18.1 15.3 8.4 53 5.1 W 13 15 7 8 1016.6 1015.8 0.0
 
Date/Time
WST
Temp
°C
App
Temp
°C
Dew
Point
°C
Rel
Hum
%
Delta-T
°C
Wind Press
QNH
hPa
Press
MSL
hPa
Rain since
9am
mm
Dir  Spd
km/h
Gust
km/h
Spd
kts
Gust
kts
13/11:30pm 19.2 16.6 7.9 48 5.9 W 11 15 6 8 1016.2 1015.5 0.0
13/11:00pm 17.3 14.5 6.8 50 5.3 NNW 11 13 6 7 1015.9 1015.2 0.0
13/10:30pm 17.9 15.4 6.7 48 5.7 NNW 9 9 5 5 1015.7 1014.9 0.0
13/10:00pm 18.5 17.7 6.4 45 6.2 CALM 0 0 0 0 1015.6 1014.8 0.0
13/09:30pm 19.1 16.6 4.5 38 7.2 NNW 7 7 4 4 1015.5 1014.7 0.0
13/09:00pm 19.9 16.9 4.0 35 7.8 NNW 9 15 5 8 1015.2 1014.4 0.0
13/08:30pm 21.1 17.7 3.8 32 8.5 NNW 11 13 6 7 1014.9 1014.1 0.0
13/08:00pm 21.5 18.4 3.7 31 8.8 NNW 9 13 5 7 1014.8 1014.0 0.0
13/07:30pm 21.6 18.2 3.8 31 8.8 NNW 11 15 6 8 1014.7 1013.9 0.0
13/07:00pm 21.2 17.7 3.4 31 8.7 NNW 11 11 6 6 1014.4 1013.6 0.0
13/06:30pm 21.7 18.2 3.4 30 9.0 NNW 11 11 6 6 1014.0 1013.2 0.0
13/06:00pm 23.2 20.0 3.2 27 9.9 NNW 9 9 5 5 1014.2 1013.5 0.0
13/05:30pm 24.5 20.6 3.2 25 10.6 NNW 13 17 7 9 1014.1 1013.4 0.0
13/05:00pm 25.0 20.5 2.4 23 11.1 NNW 15 20 8 11 1014.1 1013.4 0.0
13/04:30pm 25.7 19.9 2.4 22 11.5 NW 22 30 12 16 1014.1 1013.4 0.0
13/04:00pm 25.9 20.0 1.9 21 11.8 NW 22 35 12 19 1014.2 1013.5 0.0

Other formats

Comma delimited format used in spreadsheet applications
http://www.bom.gov.au/fwo/IDW60801/IDW60801.95439.axf

JavaScript Object Notation format (JSON) in row-major order
http://www.bom.gov.au/fwo/IDW60801/IDW60801.95439.json

Data quality

Most of these data are generated automatically and are frequently updated. Quality checks on data are not normally performed. It is possible for incorrect values to appear. Refer to information at About Latest Weather Observations and please check the disclaimer before using these data.